AirNav   Phillips 66 Aviation Fuel
 
 1424 users online  

L18 Fallbrook Community Airpark
Fallbrook, California, USA

GOING TO FALLBROOK?


FAA INFORMATION EFFECTIVE 04 JANUARY 2018

Location

FAA Identifier: L18
Lat/Long: 33-21-15.0000N / 117-15-03.0000W
33-21.250000N / 117-15.050000W
33.3541667 / -117.2508333
(estimated)
Elevation: 708 ft. / 216 m (estimated)
Variation: 13E (1985)
From city: 2 miles S of FALLBROOK, CA
Time zone: UTC -8 (UTC -7 during Daylight Saving Time)
Zip code: 92028

Airport Operations

Airport use: Open to the public
Activation date: 11/1964
Control tower: no
ARTCC: LOS ANGELES CENTER
FSS: SAN DIEGO FLIGHT SERVICE STATION
NOTAMs facility: L18 (NOTAM-D service available)
Attendance: MON-FRI 0900-1400
Pattern altitude: 1708 ft. MSL
HELICOPTER/ROTOCRAFT 500 FT. FOR PAT INFO REFER TO NOISE INFO ON FALLBROOK LINK AT WWW.SDCOUNTYAIRPORTS.COM.
Wind indicator: yes
Segmented circle: yes
Lights: MIRL RWY 18/36 MED INTST ONLY AVBL. ACTVT MIRL RY 18/36 & TWY LGTS - CTAF (5 CLICKS ON, 7 CLICKS OFF).
Beacon: white-green (lighted land airport)
Operates sunset to sunrise.

Airport Communications

CTAF: 123.05
WX AWOS-3P: 118.425 (760-723-6073)
SOCAL APPROACH: 127.3
SOCAL DEPARTURE: 127.3
WX ASOS at OKB (10 nm SW): 127.8 (760-439-9683)
WX ASOS at CRQ (14 nm S): PHONE 760-930-0864
WX AWOS-3 at F70 (15 nm NE): 119.025 (951-696-1018)
  • FOR CLNC DEL CALL SOCAL APCH (800) 448-3724.

Nearby radio navigation aids

VOR radial/distance  VOR name  Freq  Var
OCNr036/10.8OCEANSIDE VORTAC115.3015E
HDFr173/(25.5)HOMELAND VOR113.4014E
ELBr115/30.8EL TORO VOR/DME117.2014E
MZBr343/34.3MISSION BAY VORTAC117.8015E
JLIr276/35.7JULIAN VORTAC114.0015E
PDZr143/36.6PARADISE VORTAC112.2015E
RALr151/(37.4)RIVERSIDE VOR112.4014E

Airport Services

Fuel available: 100LL
Parking: tiedowns
Airframe service: MAJOR
Powerplant service: MAJOR
Bottled oxygen: HIGH/LOW
Bulk oxygen: NONE

Runway Information

Runway 18/36

Dimensions: 2160 x 60 ft. / 658 x 18 m
Surface: asphalt/rubberized friction seal coat, in good condition
Weight bearing capacity: 
Single wheel: 12.0
Runway edge lights: medium intensity
Runway edge markings: 18/36 HAS 1 FT WIDE EDGE STRIPES.
RUNWAY 18  RUNWAY 36
Latitude: 33-21.422667N33-21.077333N
Longitude: 117-14.998167W117-15.101833W
Elevation: 708.0 ft.699.0 ft.
Gradient: 0.5%0.4% UP
Traffic pattern: leftright
Runway heading: 181 magnetic, 194 true001 magnetic, 014 true
Markings: basic, in good conditionbasic, in good condition
Visual slope indicator: pulsating/steady burning VASI on left (4.00 degrees glide path)
Runway end identifier lights: nono
Touchdown point: yes, no lightsyes, no lights

Helipad H1

Dimensions: 45 x 45 ft. / 14 x 14 m
Surface: asphalt/concrete
Operational restrictions: RSTD TO PUBLIC SAFETY ACFT.
Latitude: 33-21.112167N
Longitude: 117-15.024667W
Elevation: 697.0 ft.
Traffic pattern: leftleft

Airport Ownership and Management from official FAA records

Ownership: Publicly-owned
Owner: COUNTY OF SAN DIEGO
1960 JOE CROSSON DRIVE
EL CAJON, CA 92020-1235
Phone 619-956-4800
Manager: MEADOW CHASE
2155 SOUTH MISSION ROAD
FALLBROOK, CA 92028
Phone 760-723-8395
SECONDARY CONTACT PETER DRINKWATER 619-956-4800

Airport Operational Statistics

Aircraft based on the field: 100
Single engine airplanes: 92
Multi engine airplanes: 6
Helicopters: 1
Gliders airplanes: 1
    
Aircraft operations: avg 54/day *
60% local general aviation
40% transient general aviation
* for 12-month period ending 31 December 2016

Additional Remarks

NO SAFETY AREA AVBL DUE TO ABRUPT DROP-OFF EACH END OF RWY.
CONC HELIPAD CLOSED TO UNAUTHORIZED AIRCRAFT.
AP ADMIN BLDG EAST SIDE OF RWY; FUELING AREA WEST OF AFLD.
PART 77 OBSTRUCTION, +15 FT HILL 100 FT E OF RWY 18 CNTRLN.
ROTOCRAFT FUEL OR PARKING UNAVBL. ROTOCRAFT TGL RSTD TO RWY.
HOVERS, SKID LANDINGS, AND AUTO-ROTATIONS PROHIBITED.
RWY 18 CALM WIND RWY
TRAN PRKG LCTD ON SE CORNER OF AFLD.
OCNL COYOTE ON OR IN THE VICINITY OF RWY AND TWY.
ACFT SHALL SELF-ANNOUNCE ON CTAF PRIOR TO LDG OR TKOF.
NOISE ABATEMENT: TKOFS CLIMB STRAIGHT AHEAD TO 1200 FT MSL. RWY 18 TURN CROSSWIND WHEN ABEAM WATER TANK 1.1 MI ESE OF RWY. RWY 18 EXTEND DOWNWIND LEG TO ALLOW 1/3 MILE FINAL APCH. FLY DOWNWIND EAST OF HIGH SCHOOL.
PPR FOR ALL ACFT OVER 12000 LBS AND ALL MIL ACFT, CTC AMGR.
TWY HOLD BARS NON -STD DIST FM RY EDGE.
MIL BASE SW, FRQ MIL HELS IN VICINITY OF ARPT.

Instrument Procedures

NOTE: All procedures below are presented as PDF files. If you need a reader for these files, you should download the free Adobe Reader.

NOT FOR NAVIGATION. Please procure official charts for flight.
FAA instrument procedures published for use between 4 January 2018 at 0901Z and 1 February 2018 at 0900Z.

 
IAPs - Instrument Approach Procedures
GPS RWY 18   download (252KB)
 
FALLBROOK ONE (OBSTACLE)   download (179KB)
NOTE: Special Take-Off Minimums/Departure Procedures apply   download (198KB)

Other nearby airports with instrument procedures:

KNFG - Camp Pendleton MCAS (Munn Field) Airport (6 nm SW)
KOKB - Bob Maxwell Memorial Airfield (10 nm SW)
KCRQ - Mc Clellan-Palomar Airport (14 nm S)
F70 - French Valley Airport (15 nm NE)
KRNM - Ramona Airport (25 nm SE)
 
Loc | Ops | Rwys | IFR | FBO | Links
Com | Nav | Svcs | Stats | Notes

San Bernardino International Airport Authority
 
Area around L18 (Fallbrook Community Airpark)
 
Road maps at: MapQuest Bing Google
 
Aerial photo
WARNING: Photo may not be current or correct
Aerial photo of L18 (Fallbrook Community Airpark)
Photo courtesy of West Coast Aerial Photography
Photo taken 08-Mar-2017
looking southwest.

Do you have a better or more recent aerial photo of Fallbrook Community Airpark that you would like to share? If so, please send us your photo.

 
Sectional chart

 
Airport distance calculator
Flying to Fallbrook Community Airpark? Find the distance to fly.

From to L18

Sunrise and sunset
Times for 19-Jan-2018
 Local
(UTC-8)
 Zulu
(UTC)
Morning civil twilight06:2614:26
Sunrise06:5314:53
Sunset17:0701:07
Evening civil twilight17:3401:34

Current date and time
Zulu (UTC)  19-Jan-2018 19:56:09
Local (UTC-8)  19-Jan-2018 11:56:09
 
METAR
KL18 191935Z AUTO 16006KT 130V190 10SM OVC017 15/10 A3002 RMK AO2
KNFG 
6nm SW 
191855Z VRB04KT 8SM SCT018 BKN025 16/12 A3003 RMK A02 SLP169 T01610117
KOKB 
10nm SW 
191852Z AUTO 19006KT 5SM HZ OVC023 17/12 A3003 RMK AO2 SLP169 T01670117
KNXF 
11nm W 
191856Z AUTO 17004KT 9SM OVC022 17/12 A3003 RMK AO2 SLP256 T01670117 $
KCRQ 
13nm S 
191853Z AUTO 24006KT 8SM OVC017 16/12 A3003 RMK AO2 SLP168 T01560117
KF70 
15nm NE 
191930Z AUTO 22008KT 10SM BKN016 14/09 A3001 RMK AO1 AWOS NOTAMED OSM
TAF
KNFG 
6nm SW 
1915/2015 VRB05KT 9999 OVC015 QNH2999INS BECMG 1919/1921 24007KT 9999 OVC015 QNH2993INS FM200000 24009KT 8000 -RA BR OVC015 QNH2993INS TEMPO 2004/2010 24011G24KT BECMG 2011/2013 24007KT 9999 NSW BKN025 OVC080 QNH2994INS FM201400 VRB05KT 9999 BKN035 QNH2993INS T16/1922Z T05/2014Z
KCRQ 
13nm S 
191733Z 1918/2018 VRB06KT 3SM BR OVC015 TEMPO 1918/1922 BKN020 FM192200 25010KT P6SM VCSH BKN020 OVC040 FM200200 25010G17KT P6SM BKN025 BKN040 FM200800 25010KT P6SM SCT025 BKN040
NOTAMs
Click for the latest NOTAMs
NOTAMs are issued by the DoD/FAA and will open in a separate window not controlled by AirNav.

 

 
 

FBO, Fuel Providers, and Aircraft Ground Support

  
 Business Name 
 
 Contact 
 
 Services / Description 
 
Fuel Prices
 
Comments
  
AHM, LLC 760-431-7670 Aviation fuel, Hangar leasing / sales, Aircraft maintenance, Aircraft cleaning / washing / detailing, Restrooms

More info about AHM, LLC
Phillips 66
100LL
SS $4.99 
 Updated 09-Jan-2018
 
   write
SS=Self service
Update Fuel Prices
 

Aviation Businesses, Services, and Facilities

  
 Business Name 
 
 Contact 
 
 Services / Description 
 
Distance
 
Comments
  
 California Aero Marketing, LLC
760-731-2614
[web site]
[email]
Aircraft ground handling, Oxygen service, Flight training, Aircraft maintenance, Aircraft modifications, Aircraft interiors, Aircraft cleaning / washing / detailing, ...

More info about California Aero Marketing, LLC
on airport  
   write
L18 Airpark, LLC 760-728-7401
[email]
Hangar leasing / sales, Pilots lounge / snooze room, Computerized weather, Internet access, Restrooms

More info about L18 Airpark, LLC
on airport  
   write
 

Would you like to see your business listed on this page?

 If your business provides an interesting product or service to pilots, flight crews, aircraft, or users of the Fallbrook Community Airpark, you should consider listing it here.  To start the listing process, click on the button below
 
Add a business
 

Other Pages about Fallbrook Community Airpark

www.co.san-diego.ca.us/...
 
Update a link
 
Copyright © AirNav, LLC. All rights reserved. Privacy Policy  Contact